Portada
METAR-TAF:

METAR-TAF

Aeropuertos :

Narsarsuaq, Groenlandia

latitud: 61-10N, longitud: 045-25W, altitud: 34 m

Observación

El informe se hizo hace 26 minutos, a las 13:50 UTC
Viento 2 kt del suroeste
Temperatura -7°C
Humedad 38%
Presión 1001 hPa
Visibilidad 10 km o más
Escasas nubes a una altura de 20000 ft

METAR: BGBW 041350Z 23002KT 9999 FEW200 M07/M19 Q1001

Hora: 11:16 (14:16 UTC)

Pronóstico

El informe se hizo hace 3 horas y 13 minutos, a las 11:03 UTC
Pronóstico válido del 04 a las 12 UTC al 04 a las 21 UTC
Viento 12 kt del noreste
Visibilidad 10 km o más
Escasas nubes a una altura de 10000 ft
Evolucionando progresivamente
del 04 a las 12 UTC al 04 a las 14 UTC
Viento 5 kt con dirección variable

TAF: BGBW 041103Z 0412/0421 05012KT 9999 FEW100 BECMG 0412/0414 VRB05KT

Observaciones y pronósticos meteorológicos de más de 4000 aeropuertos (mensajes METAR y TAF).

Los puntos amarillos y rojos representan las estaciones disponibles.

Ponga el ratón en el punto deseado para ver el nombre de la estación.

Haga clic para ver las observaciones y los pronósticos meteorológicos.

Para cambiar el mapa : haga clic en los botones verdes con una cruz de color negro para hacer un zoom, en el botón verde con un guión para alejar o en las flechas verdes para mapas adyacentes.


METAR-TAF: